Tiempo atmosférico en la estación meteorológica de Baztan, Irurita, Navarra (183 m.)



Fecha
DESCASC
Temp. máxima en grados centígrados (hora)
DESCASC
Temp. mínima en grados centígrados (hora)
DESCASC
Temp. media en grados centígrados
DESCASC
Racha de viento máxima en m/sg (hora)
DESCASC
Velocidad máxima media en intervalos de 10 minutos(hora)
DESCASC
Precipitaciones diarias en mm
DESCASC
Precipitaciones de 00:00 a 06:00 en mm
DESCASC
Precipitaciones de 06:00 a 12:00 en mm
DESCASC
Precipitaciones de 12:00 a 18:00 en mm
DESCASC
Precipitaciones de 18:00 a 24:00 en mm
DESCASC
17-02-2019 21.2 (14:40) 3.2 (21:40) 12.2 14.72 (13:30) 5.83 (15:20) 0 0 0 0 0
16-02-2019 20.2 (16:20) -2.6 (08:10) 8.8 11.11 (12:40) 5.83 (12:40) 0 0 0 0 0
15-02-2019 19.7 (16:00) 0.1 (07:50) 9.9 6.39 (15:10) 3.06 (14:40) 0 0 0 0 0
14-02-2019 19.6 (16:10) 2.4 (00:00) 11 10.83 (12:20) 5.28 (12:20) 0 0 0 0 0
13-02-2019 18.3 (16:40) -1.2 (-00:0) 8.5 6.67 (18:00) 2.22 (18:00) 0 0 0 0 0
12-02-2019 13.4 (14:40) 0.4 (00:00) 6.9 4.72 (16:40) 2.5 (17:00) 0.1 0.1 0 0 0
11-02-2019 11.1 (15:10) 4.9 (00:00) 8 4.72 (16:10) 1.94 (16:10) 8.5 3 2.2 2.7 0.6
10-02-2019 14.2 (00:50) 5.3 (00:00) 9.8 13.61 (07:30) 3.89 (07:30) 7.2 0 1 5.9 0.3
09-02-2019 18.1 (16:10) 0.7 (00:00) 9.4 10 (20:30) 3.61 (16:50) 0 0 0 0 0
08-02-2019 17.5 (15:20) 0.3 (00:00) 8.9 6.39 (18:00) 3.06 (18:10) 0 0 0 0 0
07-02-2019 10.7 (16:40) 2 (00:00) 6.3 5.28 (14:20) 1.94 (15:20) 0.6 0 0 0.6 0
06-02-2019 18.8 (16:30) 4.9 (00:00) 11.8 2.22 (22:40) 1.11 (18:20) 0.4 0.4 0 0 0
05-02-2019 11.2 (14:50) 5.7 (00:00) 8.4 1.11 (23:40) 0.83 (23:40) 14.8 7.2 2.3 1.4 3.9
04-02-2019 8.6 (15:50) -1.4 (-00:0) 3.6 1.94 (03:20) 1.11 (07:50) 2.5 0 0 0.1 2.4
03-02-2019 7.8 (15:20) 0 (00:00) 3.9 10 (00:50) 4.44 (00:50) 7.2 4.1 3.1 0 0
02-02-2019 -- (--) -- (--) -- -- (--) -- (--) -- 10.7 -- 4.2 6.6
01-02-2019 14.6 (13:30) 3.5 (00:00) 9.1 15.28 (16:10) 5.28 (11:10) 5.5 0.9 0.1 2.4 2.1
31-01-2019 13.4 (17:10) 5.3 (00:00) 9.3 11.11 (19:20) 5.28 (19:20) 42 3.3 9.5 0.3 28.9
30-01-2019 9.9 (16:40) 3.5 (00:00) 6.7 12.22 (00:10) 3.61 (00:20) 13.4 4 9.3 0.1 0
29-01-2019 10 (17:20) 4.4 (00:00) 7.2 17.22 (18:00) 4.17 (22:20) 21.2 4 2.9 5.3 9
28-01-2019 9.6 (10:30) 4.9 (00:00) 7.3 14.72 (08:50) 5.83 (08:50) 52.6 9.2 17.7 19.7 6
27-01-2019 8.9 (06:50) 3.8 (00:00) 6.3 14.17 (09:40) 5.56 (09:40) 25.3 2.9 6.7 8.4 7.3
26-01-2019 13.2 (16:30) 3.1 (00:00) 8.1 3.33 (12:40) 1.39 (13:10) 1.5 1.5 0 0 0
25-01-2019 10.4 (13:10) 3.5 (00:00) 6.9 5.83 (06:50) 2.22 (06:50) -- 3.9 10.6 5.2 --
24-01-2019 5.6 (00:10) 2.5 (00:00) 4 6.11 (00:10) 2.22 (02:50) 12.3 11.4 0.5 0 0.4
23-01-2019 9.9 (08:10) 3.8 (00:00) 6.8 13.89 (20:50) 6.39 (20:50) 83.3 19 25.1 16.4 22.8
22-01-2019 5.6 (13:40) 2.8 (00:00) 4.2 -- (--) -- (--) 33.2 0 3.5 16.4 13.3
21-01-2019 7.2 (15:50) 3.2 (00:00) 5.2 -- (--) -- (--) 5.4 3.1 2 0.3 0
20-01-2019 9.4 (16:20) 5.5 (00:00) 7.4 -- (--) -- (--) 15.3 0.4 6.6 3.4 4.9
19-01-2019 10.5 (15:30) 3.6 (00:00) 7 -- (--) -- (--) 2 1.8 0.2 0 0

Gráficas

Temp. máximas Temp. mínimas Temp. medias Precipitaciones Rachas de viento máximas Velocidades máximas media en intervalos de 10 minutos

Datos horarios

Fecha y hora oficial Temperatura (ºC) Velocidad del viento (km/h) Dirección del viento Racha (km/h) Dirección de racha Precipitación (mm) Presión (hPa) Tendencia (hPa) Humedad (%)
2019-02-17 23:00:00 7.1 4 Noroeste 12 Oeste 0 -- -- 54
2019-02-17 22:00:00 4.1 0 Calma 8 Norte 0 -- -- 71
2019-02-17 21:00:00 4 0 Calma 3 Este 0 -- -- 68
2019-02-17 20:00:00 7 0 Calma 10 Sudoeste 0 -- -- 49
2019-02-17 19:00:00 10.7 5 Sudoeste 18 Sudoeste 0 -- -- 34
2019-02-17 18:00:00 17.9 9 Sudoeste 22 Sudoeste 0 -- -- 19
2019-02-17 17:00:00 19.7 12 Sudoeste 34 Sur 0 -- -- 19
2019-02-17 16:00:00 20.6 15 Sur 42 Sur 0 -- -- 19
2019-02-17 15:00:00 20.5 13 Sur 40 Sudeste 0 -- -- 19
2019-02-17 14:00:00 19.9 13 Sudoeste 53 Sudoeste 0 -- -- 19
2019-02-17 13:00:00 19.8 4 Sur 36 Nordeste 0 -- -- 19
2019-02-17 12:00:00 19.2 12 Sur 32 Sur 0 -- -- 19
2019-02-17 11:00:00 18.5 3 Noroeste 21 Sudeste 0 -- -- 19
2019-02-17 10:00:00 16.7 3 Sudeste 27 Sudeste 0 -- -- 20
2019-02-17 09:00:00 14.6 5 Sudeste 29 Sudeste 0 -- -- 22
2019-02-17 08:00:00 13.7 4 Este 18 Norte 0 -- -- 22
2019-02-17 07:00:00 13.9 2 Sudeste 28 Nordeste 0 -- -- 22
2019-02-17 06:00:00 12.1 5 Sur 37 Sudoeste 0 -- -- 23
2019-02-17 05:00:00 15.2 4 Sur 31 Sudeste 0 -- -- 22
2019-02-17 04:00:00 14.7 3 Sudeste 46 Sudoeste 0 -- -- 22
2019-02-17 03:00:00 15.1 0 Calma 24 Este 0 -- -- 22
2019-02-17 02:00:00 14.2 3 Este 23 Sudeste 0 -- -- 23
2019-02-17 01:00:00 14.7 5 Nordeste 27 Sudeste 0 -- -- 20
2019-02-17 00:00:00 14.8 3 Norte 27 Sudoeste 0 -- -- 19
2019-02-16 23:00:00 13.7 2 Norte 33 Sudeste 0 -- -- 20
2019-02-16 22:00:00 15.4 11 Sudeste 30 Sur 0 -- -- 20
2019-02-16 21:00:00 12.7 5 Sudeste 25 Sur 0 -- -- 25
2019-02-16 20:00:00 14.3 10 Sudoeste 21 Sudoeste 0 -- -- 28
2019-02-16 19:00:00 15.5 6 Sudoeste 22 Sur 0 -- -- 27
2019-02-16 18:00:00 16.4 5 Sudoeste 22 Sur 0 -- -- 22
2019-02-16 17:00:00 19.4 11 Sudoeste 23 Sudoeste 0 -- -- 22
2019-02-16 16:00:00 19.3 11 Sur 36 Sudoeste 0 -- -- 24
2019-02-16 15:00:00 18.9 18 Sudoeste 37 Sur 0 -- -- 24
2019-02-16 14:00:00 18.7 13 Sur 32 Sur 0 -- -- 26
2019-02-16 13:00:00 17.5 17 Sur 40 Sudoeste 0 -- -- 29
2019-02-16 12:00:00 16.5 9 Sur 30 Sudeste 0 -- -- 32
2019-02-16 11:00:00 14.4 12 Sur 26 Sudoeste 0 -- -- 40
2019-02-16 10:00:00 2.8 0 Calma 6 Este 0 -- -- 88
2019-02-16 09:00:00 -0.9 0 Calma 7 Sudoeste 0 -- -- 96
2019-02-16 08:00:00 -2.1 0 Calma 5 Sudoeste 0 -- -- 96
2019-02-16 07:00:00 -2 0 Calma 3 Nordeste 0 -- -- 96
2019-02-16 06:00:00 -1.7 0 Calma 4 Este 0 -- -- 96
2019-02-16 05:00:00 -1.1 0 Calma 8 Sur 0 -- -- 96
2019-02-16 04:00:00 -0.9 0 Calma 3 Sudoeste 0 -- -- 96
2019-02-16 03:00:00 -0.3 0 Calma 4 Sudoeste 0 -- -- 95
2019-02-16 02:00:00 0 0 Calma 10 Sur 0 -- -- 95
2019-02-16 01:00:00 0.5 0 Calma 6 Sur 0 -- -- 94
2019-02-16 00:00:00 1 0 Calma 4 Sur 0 -- -- 92
2019-02-15 23:00:00 1.6 2 Sur 5 Sur 0 -- -- 91
2019-02-15 22:00:00 2.9 0 Calma 5 Sur 0 -- -- 86
2019-02-15 21:00:00 4.5 0 Calma 2 Este 0 -- -- 79
2019-02-15 20:00:00 6.1 0 Calma 5 Este 0 -- -- 70
2019-02-15 19:00:00 9.5 0 Calma 12 Oeste 0 -- -- 54
2019-02-15 18:00:00 15.6 5 Oeste 18 Noroeste 0 -- -- 32
2019-02-15 17:00:00 18.5 8 Noroeste 16 Noroeste 0 -- -- 28
2019-02-15 16:00:00 19.4 4 Oeste 23 Noroeste 0 -- -- 27
2019-02-15 15:00:00 19.2 8 Noroeste 20 Noroeste 0 -- -- 27
2019-02-15 14:00:00 18.4 9 Noroeste 18 Noroeste 0 -- -- 27
2019-02-15 13:00:00 17.2 6 Noroeste 18 Noroeste 0 -- -- 28
2019-02-15 12:00:00 15.9 6 Sudoeste 18 Noroeste 0 -- -- 29
2019-02-15 11:00:00 14.1 8 Noroeste 19 Noroeste 0 -- -- 34
2019-02-15 10:00:00 7.6 3 Este 9 Sudeste 0 -- -- 63
2019-02-15 09:00:00 2.5 0 Calma 12 Sur 0 -- -- 76
2019-02-15 08:00:00 0.4 0 Calma 8 Este 0 -- -- 82
2019-02-15 07:00:00 1.1 2 Sudeste 8 Este 0 -- -- 75
2019-02-15 06:00:00 2.4 2 Este 10 Sudeste 0 -- -- 68
2019-02-15 05:00:00 5.4 0 Calma 15 Noroeste 0 -- -- 54
2019-02-15 04:00:00 4.5 0 Calma 21 Noroeste 0 -- -- 59
2019-02-15 03:00:00 4.8 0 Calma 14 Norte 0 -- -- 60
2019-02-15 02:00:00 3.9 4 Este 14 Noroeste 0 -- -- 67
2019-02-15 01:00:00 4.8 0 Calma 17 Norte 0 -- -- 62
2019-02-15 00:00:00 4.5 0 Calma 16 Noroeste 0 -- -- 64
2019-02-14 23:00:00 6.7 0 Calma 16 Noroeste 0 -- -- 52
2019-02-14 22:00:00 11.2 2 Norte 18 Noroeste 0 -- -- 40
2019-02-14 21:00:00 9.8 2 Noroeste 21 Norte 0 -- -- 44
2019-02-14 20:00:00 9.3 3 Este 24 Sudoeste 0 -- -- 37
2019-02-14 19:00:00 16.2 10 Sudoeste 27 Sur 0 -- -- 23
2019-02-14 18:00:00 16.9 10 Sur 28 Sur 0 -- -- 22
2019-02-14 17:00:00 18.8 8 Sudoeste 39 Sudoeste 0 -- -- 21
2019-02-14 16:00:00 19.5 12 Sur 34 Sudoeste 0 -- -- 22
2019-02-14 15:00:00 18.7 11 Sur 34 Sur 0 -- -- 25
2019-02-14 14:00:00 18 15 Sur 37 Sur 0 -- -- 26
2019-02-14 13:00:00 17 12 Sur 39 Sudoeste 0 -- -- 26
2019-02-14 12:00:00 15.9 13 Sudoeste 35 Sudoeste 0 -- -- 27
2019-02-14 11:00:00 13.3 13 Sudoeste 32 Sur 0 -- -- 36
2019-02-14 10:00:00 11.3 11 Noroeste 29 Noroeste 0 -- -- 47
2019-02-14 09:00:00 10 13 Noroeste 24 Noroeste 0 -- -- 50
2019-02-14 08:00:00 4.6 4 Este 31 Noroeste 0 -- -- 72
2019-02-14 07:00:00 4.2 0 Calma 19 Este 0 -- -- 74
2019-02-14 06:00:00 4.5 0 Calma 21 Noroeste 0 -- -- 78
2019-02-14 05:00:00 3.5 0 Calma 14 Noroeste 0 -- -- 87
2019-02-14 04:00:00 3.4 3 Sur 16 Norte 0 -- -- 86
2019-02-14 03:00:00 3.5 0 Calma 23 Sur 0 -- -- 90
2019-02-14 02:00:00 2.6 0 Calma 13 Sudeste 0 -- -- 92
2019-02-14 01:00:00 3.5 0 Calma 12 Noroeste 0 -- -- 92
2019-02-14 00:00:00 3 0 Calma 10 Sudeste 0 -- -- 92
2019-02-13 23:00:00 3.9 0 Calma 12 Sudeste 0 -- -- 89
2019-02-13 22:00:00 5 2 Este 10 Sudeste 0 -- -- 84
2019-02-13 21:00:00 6.3 2 Este 11 Este 0 -- -- 77
2019-02-13 20:00:00 7.3 0 Calma 10 Nordeste 0 -- -- 72
2019-02-13 19:00:00 10.8 3 Sur 22 Sudoeste 0 -- -- 50
2019-02-13 18:00:00 15 8 Oeste 24 Noroeste 0 -- -- 38
2019-02-13 17:00:00 16.8 7 Norte 15 Noroeste 0 -- -- 35
2019-02-13 16:00:00 17.7 4 Noroeste 14 Noroeste 0 -- -- 34
2019-02-13 15:00:00 17.5 0 Calma 20 Nordeste 0 -- -- 34
2019-02-13 14:00:00 15.9 4 Norte 9 Sudeste 0 -- -- 39
2019-02-13 13:00:00 11.6 2 Nordeste 6 Sudeste 0 -- -- 59
2019-02-13 12:00:00 7.6 0 Calma 6 Sudeste 0 -- -- 71
2019-02-13 11:00:00 3.1 0 Calma 5 Este 0 -- -- 97
2019-02-13 10:00:00 -0.1 0 Calma 4 Nordeste 0 -- -- 98
2019-02-13 09:00:00 -1 0 Calma 3 Este 0 -- -- 97
2019-02-13 08:00:00 -1.1 0 Calma 0 Calma 0 -- -- 97
2019-02-13 07:00:00 -0.7 0 Calma 3 Norte 0 -- -- 97
2019-02-13 06:00:00 -0.4 0 Calma -- -- 0 -- -- 97
2019-02-13 05:00:00 -0.2 0 Calma -- -- 0 -- -- 97
2019-02-13 04:00:00 -0.5 0 Calma 3 Norte 0 -- -- 97
2019-02-13 03:00:00 -0.4 0 Calma 3 Noroeste 0 -- -- 96
2019-02-13 02:00:00 -0.4 0 Calma 0 Calma 0 -- -- 96
2019-02-13 01:00:00 0.1 0 Calma -- -- 0 -- -- 95
2019-02-13 00:00:00 0.6 0 Calma 3 Sudoeste 0 -- -- 95
2019-02-12 23:00:00 1.3 0 Calma 2 Sudoeste 0 -- -- 94
2019-02-12 22:00:00 2.2 0 Calma 0 Calma 0 -- -- 92
2019-02-12 21:00:00 3.2 0 Calma 3 Sur 0 -- -- 90
2019-02-12 20:00:00 4.9 0 Calma 4 Sudoeste 0 -- -- 85
2019-02-12 19:00:00 7 4 Sudoeste 7 Nordeste 0 -- -- 77
2019-02-12 18:00:00 11 6 Nordeste 16 Nordeste 0 -- -- 53
2019-02-12 17:00:00 12.3 9 Nordeste 17 Nordeste 0 -- -- 50
2019-02-12 16:00:00 13 6 Este 13 Nordeste 0 -- -- 49
2019-02-12 15:00:00 13.2 6 Este 12 Este 0 -- -- 49
2019-02-12 14:00:00 11.4 3 Sudeste 6 Este 0 -- -- 59
2019-02-12 13:00:00 7.3 2 Noroeste 7 Sur 0 -- -- 95
2019-02-12 12:00:00 4.4 2 Nordeste 6 Este 0 -- -- 97
2019-02-12 11:00:00 2.9 0 Calma 5 Este 0 -- -- 97
2019-02-12 10:00:00 2.1 0 Calma 7 Sudoeste 0 -- -- 97
2019-02-12 09:00:00 1.5 0 Calma 5 Este 0 -- -- 97
2019-02-12 08:00:00 1.8 0 Calma 4 Sur 0 -- -- 97
2019-02-12 07:00:00 2.4 2 Nordeste 5 Nordeste 0 -- -- 97
2019-02-12 06:00:00 2.8 0 Calma 3 Nordeste 0.1 -- -- 97
2019-02-12 05:00:00 3.3 0 Calma 5 Este 0 -- -- 97
2019-02-12 04:00:00 4 0 Calma 0 Calma 0 -- -- 97
2019-02-12 03:00:00 4.5 0 Calma 3 Sur 0 -- -- 96
2019-02-12 02:00:00 4.2 0 Calma -- -- 0 -- -- 96
2019-02-12 01:00:00 5.2 0 Calma -- -- 0 -- -- 96
2019-02-12 00:00:00 5.2 0 Calma -- -- 0 -- -- 96
2019-02-11 23:00:00 5.1 0 Calma 2 Sudeste 0 -- -- 95
2019-02-11 22:00:00 5.9 0 Calma 5 Noroeste 0.3 -- -- 95
2019-02-11 21:00:00 6.9 0 Calma 4 Este 0.3 -- -- 95
2019-02-11 20:00:00 6.7 0 Calma 4 Noroeste 0 -- -- 93
2019-02-11 19:00:00 7.5 0 Calma 9 Sudeste 0 -- -- 89
2019-02-11 18:00:00 8.3 4 Sudeste 9 Nordeste 0 -- -- 86
2019-02-11 17:00:00 9.1 4 Este 17 Noroeste 1.1 -- -- 82
2019-02-11 16:00:00 10.2 3 Sudoeste 15 Noroeste 0 -- -- 70
2019-02-11 15:00:00 10.5 4 Sudoeste 14 Norte 0.5 -- -- 71
2019-02-11 14:00:00 9.6 6 Sur 9 Sudoeste 0.6 -- -- 75
2019-02-11 13:00:00 9 4 Este 11 Noroeste 0.5 -- -- 82
2019-02-11 12:00:00 9.8 4 Oeste 10 Noroeste 0 -- -- 74
2019-02-11 11:00:00 8.4 0 Calma 8 Oeste 1 -- -- 92
2019-02-11 10:00:00 7.4 2 Nordeste 8 Sur 0.1 -- -- 89
2019-02-11 09:00:00 6.2 2 Sudoeste -- -- -- -- -- 96
2019-02-11 08:00:00 5.7 0 Calma 7 Norte 0.1 -- -- 96
2019-02-11 07:00:00 6 0 Calma 6 Sudoeste 0.1 -- -- 96
2019-02-11 06:00:00 6.5 0 Calma 10 Noroeste 0.1 -- -- 96
2019-02-11 05:00:00 6.3 2 Sur 6 Sudeste 0.5 -- -- 95
2019-02-11 04:00:00 6.3 0 Calma 11 Noroeste 0.1 -- -- 94
2019-02-11 03:00:00 6.2 4 Oeste 12 Oeste 1 -- -- 96
2019-02-11 02:00:00 6 3 Sur 9 Sur 1.3 -- -- 96
2019-02-11 01:00:00 5.4 0 Calma 6 Noroeste 0 -- -- 96
2019-02-11 00:00:00 5.3 0 Calma 4 Sudoeste 0 -- -- 95
2019-02-10 23:00:00 6.6 2 Sudeste 5 Noroeste 0.1 -- -- 95
2019-02-10 22:00:00 7.3 0 Calma 4 Sur 0 -- -- 95
2019-02-10 21:00:00 7.4 0 Calma 5 Oeste 0.1 -- -- 95
2019-02-10 20:00:00 7.6 0 Calma 6 Sudeste 0 -- -- 95
2019-02-10 19:00:00 8 0 Calma 4 Sudeste 0.1 -- -- 93
2019-02-10 18:00:00 8.7 0 Calma 8 Noroeste 0.7 -- -- 91
2019-02-10 17:00:00 9 2 Norte 11 Sudoeste 0.9 -- -- 87
2019-02-10 16:00:00 9.2 3 Sudoeste 32 Noroeste 0.8 -- -- 82
2019-02-10 15:00:00 10.4 0 Calma 23 Sudoeste 0.4 -- -- 80
2019-02-10 14:00:00 10.2 3 Noroeste 12 Sur 1.2 -- -- 86
2019-02-10 13:00:00 10.5 4 Sudoeste 30 Noroeste 1.9 -- -- 84
2019-02-10 12:00:00 12 12 Noroeste 32 Noroeste 0 -- -- 68
2019-02-10 11:00:00 13.7 13 Sudoeste 41 Sudoeste 0 -- -- 57
2019-02-10 10:00:00 11.3 6 Noroeste 17 Norte 0.1 -- -- 68
2019-02-10 09:00:00 10.9 3 Oeste 25 Oeste 0.7 -- -- 70
2019-02-10 08:00:00 12.3 12 Sudoeste 49 Sudoeste 0.2 -- -- 52
2019-02-10 07:00:00 13 8 Oeste 38 Sudoeste 0 -- -- 47
2019-02-10 06:00:00 12.1 10 Sudoeste 25 Sudoeste 0 -- -- 52
2019-02-10 05:00:00 10.2 2 Sur 26 Sur 0 -- -- 53
2019-02-10 04:00:00 12.5 7 Oeste 25 Noroeste 0 -- -- 49
2019-02-10 03:00:00 12.4 6 Oeste 20 Sudoeste 0 -- -- 49
2019-02-10 02:00:00 12.1 4 Noroeste 33 Sudoeste 0 -- -- 52
2019-02-10 01:00:00 13.7 12 Sudoeste 33 Sudeste 0 -- -- 46
2019-02-10 00:00:00 13.3 8 Noroeste 20 Noroeste 0 -- -- 48
2019-02-09 23:00:00 13.9 2 Oeste 31 Sudoeste 0 -- -- 47
2019-02-09 22:00:00 13.2 0 Calma 27 Sur 0 -- -- 48
2019-02-09 21:00:00 14.3 8 Sur 36 Sur 0 -- -- 44
2019-02-09 20:00:00 13.5 5 Norte 27 Nordeste 0 -- -- 47
2019-02-09 19:00:00 14.4 6 Sur 28 Sudoeste 0 -- -- 44
2019-02-09 18:00:00 15.2 4 Sudoeste 22 Sudoeste 0 -- -- 45
2019-02-09 17:00:00 15.7 11 Sudoeste 32 Sudoeste 0 -- -- 43
2019-02-09 16:00:00 17.5 4 Oeste 18 Sudoeste 0 -- -- 39
2019-02-09 15:00:00 17.4 7 Sudoeste 20 Sudoeste 0 -- -- 39
2019-02-09 14:00:00 16.6 5 Noroeste 10 Noroeste 0 -- -- 44
2019-02-09 13:00:00 14.4 0 Calma 5 Nordeste 0 -- -- 52
2019-02-09 12:00:00 11.3 0 Calma 4 Este 0 -- -- 70
2019-02-09 11:00:00 7.8 0 Calma -- -- 0 -- -- 84
2019-02-09 10:00:00 4.3 0 Calma -- -- 0 -- -- 96
2019-02-09 09:00:00 1.5 0 Calma 2 Sudeste 0 -- -- 97
2019-02-09 08:00:00 0.8 0 Calma 3 Sudeste 0 -- -- 96
2019-02-09 07:00:00 1.4 0 Calma 3 Sudeste 0 -- -- 96
2019-02-09 06:00:00 1.8 3 Sur 5 Sur 0 -- -- 96
2019-02-09 05:00:00 2.5 0 Calma 3 Sudoeste 0 -- -- 96
2019-02-09 04:00:00 3.5 0 Calma 3 Sur 0 -- -- 96
2019-02-09 03:00:00 3.4 0 Calma 4 Sur 0 -- -- 96
2019-02-09 02:00:00 3.6 0 Calma 5 Sudoeste 0 -- -- 95
2019-02-09 01:00:00 3.9 0 Calma 8 Sur 0 -- -- 95
2019-02-09 00:00:00 4.6 0 Calma 7 Sudoeste 0 -- -- 94
2019-02-08 23:00:00 5.1 0 Calma 6 Sudoeste 0 -- -- 93
2019-02-08 22:00:00 5.6 0 Calma 8 Sudoeste 0 -- -- 92
2019-02-08 21:00:00 6.1 2 Sur 5 Sur 0 -- -- 89
2019-02-08 20:00:00 7.2 0 Calma 6 Sudoeste 0 -- -- 83
2019-02-08 19:00:00 9.6 0 Calma 21 Oeste 0 -- -- 69
2019-02-08 18:00:00 13.9 10 Noroeste 23 Noroeste 0 -- -- 49
2019-02-08 17:00:00 15.9 9 Sudoeste 23 Noroeste 0 -- -- 42
2019-02-08 16:00:00 17.2 6 Noroeste 19 Noroeste 0 -- -- 38
2019-02-08 15:00:00 16.9 7 Noroeste 17 Oeste 0 -- -- 39
2019-02-08 14:00:00 15.5 8 Noroeste 17 Noroeste 0 -- -- 45
2019-02-08 13:00:00 13 3 Este 7 Sudeste 0 -- -- 59
2019-02-08 12:00:00 8.6 0 Calma 7 Sudeste 0 -- -- 83
2019-02-08 11:00:00 4 0 Calma 5 Sudeste 0 -- -- 97
2019-02-08 10:00:00 1 0 Calma 5 Sudoeste 0 -- -- 97
2019-02-08 09:00:00 0.5 2 Sur 5 Sur 0 -- -- 97
2019-02-08 08:00:00 0.6 0 Calma 4 Sur 0 -- -- 97
2019-02-08 07:00:00 1 0 Calma 4 Sur 0 -- -- 97
2019-02-08 06:00:00 1.3 0 Calma 3 Sur 0 -- -- 97
2019-02-08 05:00:00 1.5 0 Calma 2 Norte 0 -- -- 97
2019-02-08 04:00:00 1.5 0 Calma 3 Sur 0 -- -- 97
2019-02-08 03:00:00 1.5 0 Calma 4 Noroeste 0 -- -- 97
2019-02-08 02:00:00 1.6 0 Calma 3 Sur 0 -- -- 96
2019-02-08 01:00:00 1.6 0 Calma 0 Calma 0 -- -- 96
2019-02-08 00:00:00 2.1 0 Calma 2 Sudoeste 0 -- -- 95
2019-02-07 23:00:00 2.9 0 Calma 3 Sur 0 -- -- 94
2019-02-07 22:00:00 3.7 0 Calma 3 Sudoeste 0 -- -- 92
2019-02-07 21:00:00 5.3 0 Calma 2 Sur 0 -- -- 90
2019-02-07 20:00:00 7.3 0 Calma 4 Sur 0 -- -- 89
2019-02-07 19:00:00 8.7 0 Calma 4 Sudoeste 0 -- -- 83
2019-02-07 18:00:00 10.1 0 Calma 10 Sudoeste 0 -- -- 75
2019-02-07 17:00:00 10.2 5 Sudoeste 11 Sudoeste 0 -- -- 68
2019-02-07 16:00:00 10.5 0 Calma 10 Sudoeste 0 -- -- 69
2019-02-07 15:00:00 10.3 6 Sudoeste 19 Oeste 0 -- -- 69
2019-02-07 14:00:00 10 0 Calma 4 Este 0.5 -- -- 93
2019-02-07 13:00:00 9.1 0 Calma 5 Noroeste 0.1 -- -- 94
2019-02-07 12:00:00 8.3 0 Calma 3 Nordeste 0 -- -- 95
2019-02-07 11:00:00 7 0 Calma 6 Norte 0 -- -- 96
2019-02-07 10:00:00 6.6 0 Calma 4 Noroeste 0 -- -- 96
2019-02-07 09:00:00 6.3 0 Calma 3 Sudoeste 0 -- -- 96
2019-02-07 08:00:00 5.8 0 Calma 5 Norte 0 -- -- 96
2019-02-07 07:00:00 5.6 0 Calma 4 Sur 0 -- -- 96
2019-02-07 06:00:00 5.4 0 Calma 3 Noroeste 0 -- -- 96
2019-02-07 05:00:00 4.5 0 Calma 4 Sur 0 -- -- 96
2019-02-07 04:00:00 5.2 0 Calma 6 Noroeste 0 -- -- 96
2019-02-07 03:00:00 4.7 0 Calma 4 Noroeste 0 -- -- 96
2019-02-07 02:00:00 4.7 0 Calma 3 Oeste 0 -- -- 96
2019-02-07 01:00:00 4.3 0 Calma 2 Sudoeste 0 -- -- 96
2019-02-07 00:00:00 5.1 0 Calma 5 Sur 0 -- -- 95
2019-02-06 23:00:00 5.6 0 Calma 8 Sudoeste 0 -- -- 95
2019-02-06 22:00:00 6.4 0 Calma 4 Sudoeste 0 -- -- 94
2019-02-06 21:00:00 7.4 0 Calma 5 Noroeste 0 -- -- 92
2019-02-06 20:00:00 8.5 0 Calma 6 Sur 0 -- -- 90
2019-02-06 19:00:00 11.1 3 Sur 7 Sudoeste 0 -- -- 83
2019-02-06 18:00:00 14 3 Sudoeste 6 Sur 0 -- -- 73
2019-02-06 17:00:00 16.2 2 Sudoeste 4 Sur 0 -- -- 63
2019-02-06 16:00:00 17.6 0 Calma 5 Este 0 -- -- 53
2019-02-06 15:00:00 16.4 0 Calma 6 Sudeste 0 -- -- 57
2019-02-06 14:00:00 15.2 0 Calma 5 Nordeste 0 -- -- 59
2019-02-06 13:00:00 14 2 Sudeste 6 Sudeste 0 -- -- 69
2019-02-06 12:00:00 12.7 0 Calma 7 Noroeste 0 -- -- 80
2019-02-06 11:00:00 10.4 2 Oeste 4 Oeste 0 -- -- 92
2019-02-06 10:00:00 9.5 0 Calma 3 Noroeste 0 -- -- 96
2019-02-06 09:00:00 9 0 Calma 4 Sudoeste 0 -- -- 96
2019-02-06 08:00:00 8.8 0 Calma 3 Noroeste 0 -- -- 96
2019-02-06 07:00:00 8.7 0 Calma 2 Noroeste 0 -- -- 96
2019-02-06 06:00:00 8.7 0 Calma 3 Sur 0.1 -- -- 96
2019-02-06 05:00:00 8.9 0 Calma 3 Noroeste 0 -- -- 96
2019-02-06 04:00:00 8.9 0 Calma 2 Oeste 0 -- -- 96
2019-02-06 03:00:00 8.9 0 Calma -- -- 0.1 -- -- 96
2019-02-06 02:00:00 9 0 Calma 0 Calma -- -- -- 96
2019-02-06 01:00:00 9.1 0 Calma 2 Oeste 0.1 -- -- 96
2019-02-06 00:00:00 9.2 0 Calma 4 Noroeste 0.2 -- -- 96
2019-02-05 23:00:00 9.3 0 Calma 0 Calma 0.3 -- -- 96
2019-02-05 22:00:00 9.4 0 Calma 2 Sudoeste 0.5 -- -- 96
2019-02-05 21:00:00 9.5 0 Calma 3 Sudoeste 1 -- -- 96
2019-02-05 20:00:00 9.8 0 Calma 3 Sudoeste 1 -- -- 96
2019-02-05 19:00:00 10.1 2 Sudoeste 3 Sudoeste 0.9 -- -- 95
2019-02-05 18:00:00 10.7 0 Calma 3 Noroeste 0.5 -- -- 95
2019-02-05 17:00:00 10.8 0 Calma 3 Noroeste 0.4 -- -- 95
2019-02-05 16:00:00 10.8 0 Calma 4 Nordeste 0.4 -- -- 94
2019-02-05 15:00:00 11.1 0 Calma 3 Este 0 -- -- 93
2019-02-05 14:00:00 10.7 0 Calma 2 Nordeste 0 -- -- 94
2019-02-05 13:00:00 9.6 0 Calma -- -- -- -- -- 96
2019-02-05 12:00:00 8.5 0 Calma 3 Oeste 0.7 -- -- 96
2019-02-05 11:00:00 7.4 0 Calma -- -- 0.8 -- -- 96
2019-02-05 10:00:00 6.9 0 Calma -- -- 0.1 -- -- 96
2019-02-05 09:00:00 6.7 0 Calma 0 Calma 0.1 -- -- 96
2019-02-05 08:00:00 6.4 0 Calma 0 Calma 0 -- -- 96
2019-02-05 07:00:00 6.2 0 Calma 3 Sudoeste 0.6 -- -- 96
2019-02-05 06:00:00 6.2 0 Calma -- -- 1.5 -- -- 96
2019-02-05 05:00:00 6.1 0 Calma 0 Calma 0.7 -- -- 96
2019-02-05 04:00:00 6 0 Calma 3 Noroeste 1.2 -- -- 96
2019-02-05 03:00:00 5.9 0 Calma 2 Noroeste 2.3 -- -- 95
2019-02-05 02:00:00 5.9 0 Calma 0 Calma 1 -- -- 95
2019-02-05 01:00:00 5.8 0 Calma 3 Sudoeste 0.5 -- -- 95
2019-02-05 00:00:00 5.8 0 Calma -- -- 0.2 -- -- 95
2019-02-04 23:00:00 5.7 0 Calma 0 Calma 0.3 -- -- 95
2019-02-04 22:00:00 5.7 0 Calma 2 Norte 0.5 -- -- 95
2019-02-04 21:00:00 5.9 0 Calma 2 Noroeste 0.4 -- -- 94
2019-02-04 20:00:00 5.9 0 Calma 2 Sudeste 0.4 -- -- 91
2019-02-04 19:00:00 6.4 0 Calma 4 Sudoeste 0.6 -- -- 89
2019-02-04 18:00:00 7.2 2 Sur 3 Sudoeste 0.1 -- -- 80
2019-02-04 17:00:00 8.4 0 Calma 4 Noroeste 0 -- -- 56
2019-02-04 16:00:00 8.5 0 Calma 4 Sudoeste 0 -- -- 53
2019-02-04 15:00:00 7.8 0 Calma 5 Sudeste 0 -- -- 56
2019-02-04 14:00:00 6.1 2 Norte 5 Norte 0 -- -- 64
2019-02-04 13:00:00 3.7 2 Norte 7 Sudeste 0 -- -- 80
2019-02-04 12:00:00 1.3 0 Calma 5 Noroeste 0 -- -- 96
2019-02-04 11:00:00 -0.3 2 Sudoeste 6 Oeste 0 -- -- 98
2019-02-04 10:00:00 -1.1 3 Sudeste 6 Sur 0 -- -- 98
2019-02-04 09:00:00 -0.9 0 Calma 5 Oeste 0 -- -- 98
2019-02-04 08:00:00 -1.2 3 Sudeste 6 Sudeste 0 -- -- 98
2019-02-04 07:00:00 -1 0 Calma 7 Sudoeste 0 -- -- 98
2019-02-04 06:00:00 -0.8 2 Norte 5 Noroeste 0 -- -- 98
2019-02-04 05:00:00 -0.5 0 Calma 4 Sur 0 -- -- 98
2019-02-04 04:00:00 -0.5 0 Calma 7 Noroeste 0 -- -- 98
2019-02-04 03:00:00 -0.5 0 Calma 4 Oeste 0 -- -- 97
2019-02-04 02:00:00 -0.8 0 Calma 3 Sur 0 -- -- 95
2019-02-04 01:00:00 -0.3 0 Calma 4 Sudeste 0 -- -- 95
2019-02-04 00:00:00 0 0 Calma 3 Nordeste 0 -- -- 94
2019-02-03 23:00:00 1.3 0 Calma 3 Sudoeste 0 -- -- 93
2019-02-03 22:00:00 2.3 0 Calma 5 Noroeste 0 -- -- 92
2019-02-03 21:00:00 3.2 0 Calma 3 Oeste 0 -- -- 90
2019-02-03 20:00:00 3.4 0 Calma 4 Este 0 -- -- 88
2019-02-03 19:00:00 3.9 0 Calma 4 Este 0 -- -- 81
2019-02-03 18:00:00 5.5 0 Calma 9 Noroeste 0 -- -- 69
2019-02-03 17:00:00 6.8 4 Noroeste 16 Norte 0 -- -- 57
2019-02-03 16:00:00 7 2 Oeste 12 Nordeste 0 -- -- 60
2019-02-03 15:00:00 6.7 3 Sudoeste 12 Sudoeste 0 -- -- 63
2019-02-03 14:00:00 6.1 6 Sur 15 Sudoeste 0 -- -- 65
2019-02-03 13:00:00 5.2 4 Sudoeste 10 Sudoeste 0 -- -- 73
2019-02-03 12:00:00 3.3 3 Noroeste 8 Noroeste 0 -- -- 92
2019-02-03 11:00:00 2 3 Sudeste 6 Sudeste 0 -- -- 97
2019-02-03 10:00:00 0.9 2 Norte 5 Norte 0.8 -- -- 97
2019-02-03 09:00:00 -- -- -- -- -- -- -- -- --
2019-02-03 08:00:00 0.4 2 Nordeste 7 Noroeste 0.1 -- -- 97
2019-02-03 07:00:00 0.3 5 Sur 8 Sudeste 2 -- -- 96
2019-02-03 06:00:00 0.8 0 Calma 7 Este 0.8 -- -- 96
2019-02-03 05:00:00 1.1 0 Calma 8 Norte 0.7 -- -- 96
2019-02-03 04:00:00 1.5 4 Sur 12 Oeste 0.1 -- -- 95
2019-02-03 03:00:00 1.3 3 Sudoeste 12 Sur 0.1 -- -- 96
2019-02-03 02:00:00 1.3 3 Noroeste 12 Sudoeste 0 -- -- 95
2019-02-03 01:00:00 1.5 8 Este 36 Nordeste 2.4 -- -- 91
2019-02-03 00:00:00 1.5 3 Nordeste 13 Nordeste 0 -- -- 95
2019-02-02 23:00:00 1.8 0 Calma 13 Noroeste 1.2 -- -- 94
2019-02-02 22:00:00 2.3 4 Sudoeste 15 Este 2.3 -- -- 89
2019-02-02 21:00:00 3.5 6 Nordeste 30 Norte 1.2 -- -- 84
2019-02-02 20:00:00 4.8 5 Noroeste 38 Norte 0.1 -- -- 74
2019-02-02 19:00:00 4.8 4 Noroeste 30 Norte 1.8 -- -- 75
2019-02-02 18:00:00 4.8 7 Norte 31 Norte 1.7 -- -- 68
2019-02-02 17:00:00 6.5 14 Norte 35 Norte 0 -- -- 53
2019-02-02 16:00:00 7.4 17 Norte 48 Noroeste 0 -- -- 48
2019-02-02 15:00:00 7.6 11 Noroeste 37 Norte 0 -- -- 51
2019-02-02 14:00:00 7.4 4 Noroeste 38 Norte 0.1 -- -- 57
2019-02-02 13:00:00 6 8 Oeste 33 Norte 2.4 -- -- 66
2019-02-02 12:00:00 3.9 9 Norte 36 Norte 5.6 -- -- 82
2019-02-02 11:00:00 5.1 10 Norte 41 Norte 4.7 -- -- 81
2019-02-02 10:00:00 4.7 7 Noroeste 33 Noroeste 2.9 -- -- 82
2019-02-02 09:00:00 -- 11 Noroeste -- -- -- -- -- --
2019-02-02 08:00:00 -- -- -- -- -- -- -- -- --
2019-02-02 07:00:00 -- -- -- -- -- -- -- -- --
2019-02-02 06:00:00 4.4 3 Noroeste 10 Sudoeste 3 -- -- 95
2019-02-02 05:00:00 4.4 4 Noroeste 15 Noroeste 3.5 -- -- 93
2019-02-02 04:00:00 4.6 5 Noroeste 13 Noroeste 0.3 -- -- 92
2019-02-02 03:00:00 4.4 2 Oeste 6 Sudoeste 1.9 -- -- 96
2019-02-02 02:00:00 4.3 0 Calma 3 Nordeste 2 -- -- 95
2019-02-02 01:00:00 4.2 0 Calma 7 Noroeste 0 -- -- 95
2019-02-02 00:00:00 3.9 2 Noroeste 6 Sudoeste 0.1 -- -- 95
2019-02-01 23:00:00 3.8 0 Calma 3 Oeste 0 -- -- 95
2019-02-01 22:00:00 3.9 0 Calma 4 Noroeste 0 -- -- 94
2019-02-01 21:00:00 4.2 0 Calma 4 Sur 0 -- -- 92
2019-02-01 20:00:00 5 0 Calma 12 Sudeste 0.1 -- -- 89
2019-02-01 19:00:00 5.1 9 Noroeste 51 Noroeste 1.9 -- -- 80
2019-02-01 18:00:00 7.8 4 Oeste 39 Oeste 1.3 -- -- 68
2019-02-01 17:00:00 8.3 8 Sudoeste 55 Sur 1.1 -- -- 60
2019-02-01 16:00:00 12.1 15 Sur 36 Sur 0 -- -- 41
2019-02-01 15:00:00 12.8 10 Sudoeste 31 Sudoeste 0 -- -- 40
2019-02-01 14:00:00 12.2 9 Sudoeste 29 Sudoeste 0 -- -- 40
2019-02-01 13:00:00 12.6 6 Sudoeste 33 Sur 0 -- -- 42
2019-02-01 12:00:00 12.2 8 Sudoeste 35 Sudoeste 0 -- -- 41
2019-02-01 11:00:00 11.5 13 Sudoeste 33 Sudoeste 0.1 -- -- 44
2019-02-01 10:00:00 10.8 8 Oeste 31 Oeste 0 -- -- 51
2019-02-01 09:00:00 8.5 4 Noroeste 18 Sudoeste 0 -- -- 70
2019-02-01 08:00:00 6.9 7 Noroeste 36 Sudoeste 0 -- -- 82
2019-02-01 07:00:00 6.6 0 Calma 5 Sudeste 0 -- -- 97
2019-02-01 06:00:00 7.2 0 Calma 5 Norte 0 -- -- 97
2019-02-01 05:00:00 6.9 0 Calma 4 Sudoeste 0 -- -- 96
2019-02-01 04:00:00 7.8 0 Calma 6 Noroeste 0 -- -- 96
2019-02-01 03:00:00 8.1 0 Calma 6 Sur 0 -- -- 96
2019-02-01 02:00:00 8.5 0 Calma 11 Sur 0.1 -- -- 95
2019-02-01 01:00:00 8.5 4 Norte 17 Noroeste 0.8 -- -- 96
2019-02-01 00:00:00 8.6 0 Calma 8 Sudeste 4.8 -- -- 96
2019-01-31 23:00:00 8.9 0 Calma 7 Sudeste 4.5 -- -- 96
2019-01-31 22:00:00 9.3 0 Calma 7 Sudoeste 3.6 -- -- 94
2019-01-31 21:00:00 9.7 5 Sudoeste 10 Sudoeste 4.6 -- -- 93
2019-01-31 20:00:00 10.3 4 Sudoeste 40 Noroeste 11.4 -- -- 89
2019-01-31 19:00:00 12.6 3 Oeste 25 Sudoeste 0 -- -- 64
2019-01-31 18:00:00 12.5 5 Oeste 19 Noroeste 0 -- -- 66
2019-01-31 17:00:00 13.2 13 Sudoeste 28 Sudoeste 0 -- -- 62
2019-01-31 16:00:00 12.9 8 Noroeste 20 Noroeste 0 -- -- 65
2019-01-31 15:00:00 12.8 8 Noroeste 17 Oeste 0 -- -- 65
2019-01-31 14:00:00 12.2 8 Noroeste 17 Norte 0.1 -- -- 71
2019-01-31 13:00:00 10 5 Este 11 Este 0.2 -- -- 86
2019-01-31 12:00:00 8.7 2 Nordeste 10 Sudeste 0.2 -- -- 88
2019-01-31 11:00:00 7.6 3 Nordeste 10 Este 0.3 -- -- 88
2019-01-31 10:00:00 6.4 2 Sur 7 Sudoeste 2.1 -- -- 95
2019-01-31 09:00:00 6.4 3 Oeste 14 Noroeste 2.6 -- -- 93
2019-01-31 08:00:00 6.1 0 Calma 13 Noroeste 3.1 -- -- 92
2019-01-31 07:00:00 6.2 5 Noroeste 18 Noroeste 1.2 -- -- 89
2019-01-31 06:00:00 5.6 5 Este 10 Nordeste 0.6 -- -- 94
2019-01-31 05:00:00 5.5 3 Norte 13 Noroeste 0.8 -- -- 92
2019-01-31 04:00:00 5.5 0 Calma 12 Noroeste 0.6 -- -- 90
2019-01-31 03:00:00 5.8 3 Noroeste 19 Noroeste 1.1 -- -- 86
2019-01-31 02:00:00 6.2 8 Noroeste 18 Noroeste 0.1 -- -- 77
2019-01-31 01:00:00 6.5 6 Oeste 15 Oeste 0.1 -- -- 75
2019-01-31 00:00:00 6.8 4 Noroeste 19 Noroeste 0 -- -- 68
2019-01-30 23:00:00 7.3 0 Calma 15 Sur 0 -- -- 65
2019-01-30 22:00:00 7.8 0 Calma 13 Este 0 -- -- 65
2019-01-30 21:00:00 5.8 3 Nordeste 8 Nordeste 0 -- -- 85
2019-01-30 20:00:00 5.7 0 Calma 6 Sudeste 0 -- -- 82
2019-01-30 19:00:00 5.6 0 Calma 6 Oeste 0 -- -- 79
2019-01-30 18:00:00 7.6 0 Calma 11 Sudoeste 0 -- -- 58
2019-01-30 17:00:00 9.5 5 Sudoeste 22 Sur 0 -- -- 48
2019-01-30 16:00:00 9.3 13 Sur 21 Sudoeste 0 -- -- 48
2019-01-30 15:00:00 9.2 0 Calma 4 Este 0 -- -- 68
2019-01-30 14:00:00 7.6 0 Calma 7 Nordeste 0 -- -- 73
2019-01-30 13:00:00 6.4 3 Este 9 Este 0.1 -- -- 85
2019-01-30 12:00:00 5.4 4 Sudeste 8 Este 0.4 -- -- 89
2019-01-30 11:00:00 4.1 0 Calma 5 Norte 1 -- -- 93
2019-01-30 10:00:00 3.8 0 Calma 9 Nordeste 2.6 -- -- 94
2019-01-30 09:00:00 4 3 Este 6 Sudeste 3 -- -- 95
2019-01-30 08:00:00 4 0 Calma 15 Sudoeste 1 -- -- 93
2019-01-30 07:00:00 4.1 3 Noroeste 6 Noroeste 1.3 -- -- 95
2019-01-30 06:00:00 4.1 4 Noroeste 25 Noroeste 1.5 -- -- 92
2019-01-30 05:00:00 4.6 2 Sudoeste 15 Noroeste 0.2 -- -- 85
2019-01-30 04:00:00 5.1 7 Oeste 31 Noroeste 1 -- -- 78
2019-01-30 03:00:00 6.4 2 Sudoeste 17 Noroeste 0.1 -- -- 70
2019-01-30 02:00:00 6.2 3 Noroeste 28 Oeste 0.2 -- -- 69
2019-01-30 01:00:00 6 8 Noroeste 44 Noroeste 1 -- -- 73
2019-01-30 00:00:00 5.9 4 Oeste 26 Oeste 0.9 -- -- 78
2019-01-29 23:00:00 7.1 8 Noroeste 47 Oeste 0.8 -- -- 66
2019-01-29 22:00:00 7.4 12 Noroeste 42 Oeste 1.5 -- -- 66
2019-01-29 21:00:00 6.8 7 Oeste 36 Oeste 3.8 -- -- 77
2019-01-29 20:00:00 7.4 4 Noroeste 42 Noroeste 1.2 -- -- 77
2019-01-29 19:00:00 7.9 11 Noroeste 57 Sudoeste 0.8 -- -- 71
2019-01-29 18:00:00 8.7 13 Noroeste 62 Noroeste 0.6 -- -- 68
2019-01-29 17:00:00 9.8 6 Noroeste 33 Noroeste 1.3 -- -- 65
2019-01-29 16:00:00 8.1 3 Noroeste 19 Noroeste 0.7 -- -- 86
2019-01-29 15:00:00 7.8 7 Noroeste 23 Noroeste 1.4 -- -- 81
2019-01-29 14:00:00 8.2 6 Oeste 34 Sur 1.3 -- -- 73
2019-01-29 13:00:00 8.5 0 Calma 6 Este 0 -- -- 85
2019-01-29 12:00:00 7 3 Norte 11 Sudeste 0.5 -- -- 94
2019-01-29 11:00:00 6.2 0 Calma 6 Noroeste 0.4 -- -- 96
2019-01-29 10:00:00 5.7 2 Noroeste 5 Noroeste 0 -- -- 96
2019-01-29 09:00:00 5.5 0 Calma 3 Sur 0.3 -- -- 96
2019-01-29 08:00:00 5.4 0 Calma 4 Norte 0.9 -- -- 96
2019-01-29 07:00:00 5.3 2 Noroeste 4 Noroeste 0.8 -- -- 96
2019-01-29 06:00:00 5.2 0 Calma 7 Sudeste 0.5 -- -- 96
2019-01-29 05:00:00 4.9 0 Calma 4 Sudoeste 0.3 -- -- 96
2019-01-29 04:00:00 4.9 0 Calma 6 Noroeste 0 -- -- 95
2019-01-29 03:00:00 5.7 2 Sudoeste 10 Sur 0.8 -- -- 95
2019-01-29 02:00:00 6.1 0 Calma 14 Sudeste 0.9 -- -- 93
2019-01-29 01:00:00 6.5 0 Calma 17 Este 1.5 -- -- 92
2019-01-29 00:00:00 6.9 3 Nordeste 11 Este 0.2 -- -- 85
2019-01-28 23:00:00 8 5 Nordeste 27 Norte 0.1 -- -- 77
2019-01-28 22:00:00 7.4 5 Norte 26 Norte 2.6 -- -- 82
2019-01-28 21:00:00 7.5 3 Oeste 20 Oeste 0 -- -- 79
2019-01-28 20:00:00 7.7 7 Noroeste 31 Norte 1.5 -- -- 77
2019-01-28 19:00:00 8.6 11 Norte 35 Norte 1.6 -- -- 73
2019-01-28 18:00:00 8.6 7 Noroeste 27 Noroeste 0.7 -- -- 73
2019-01-28 17:00:00 8.3 8 Noroeste 30 Noroeste 6.2 -- -- 77
2019-01-28 16:00:00 8 11 Noroeste 34 Oeste 3.4 -- -- 79
2019-01-28 15:00:00 8.2 10 Noroeste 37 Noroeste 3.1 -- -- 77
2019-01-28 14:00:00 9 9 Noroeste 27 Nordeste 2.6 -- -- 74
2019-01-28 13:00:00 7.8 12 Norte 32 Noroeste 3.7 -- -- 77
2019-01-28 12:00:00 9 8 Oeste 30 Noroeste 3.6 -- -- 75
2019-01-28 11:00:00 8.9 6 Noroeste 45 Noroeste 1.5 -- -- 72
2019-01-28 10:00:00 9.5 9 Noroeste 46 Norte 0.8 -- -- 64
2019-01-28 09:00:00 8.8 17 Norte 53 Norte 5 -- -- 79
2019-01-28 08:00:00 8.9 10 Noroeste 33 Noroeste 4.3 -- -- 84
2019-01-28 07:00:00 8.8 3 Noroeste 28 Noroeste 2.5 -- -- 81
2019-01-28 06:00:00 7.5 4 Sudoeste 24 Sudoeste 3.1 -- -- 92
2019-01-28 05:00:00 5.1 0 Calma 6 Norte 1.3 -- -- 96
2019-01-28 04:00:00 5 0 Calma 6 Sudeste 0.7 -- -- 95
2019-01-28 03:00:00 5 0 Calma 7 Sudeste 2 -- -- 94
2019-01-28 02:00:00 5.2 4 Sur 11 Oeste 0.6 -- -- 92
2019-01-28 01:00:00 5.5 8 Oeste 24 Sur 1.5 -- -- 87
2019-01-28 00:00:00 5.1 3 Oeste 29 Norte 3.8 -- -- 93
2019-01-27 23:00:00 5.3 2 Norte 11 Noroeste 1.2 -- -- 93
2019-01-27 22:00:00 5.4 0 Calma 22 Noroeste 0.9 -- -- 89
2019-01-27 21:00:00 6 0 Calma 39 Noroeste 0.9 -- -- 80
2019-01-27 20:00:00 7.3 12 Noroeste 30 Norte 0.4 -- -- 73
2019-01-27 19:00:00 6.6 4 Norte 25 Noroeste 0.1 -- -- 74
2019-01-27 18:00:00 6.6 8 Oeste 35 Noroeste 0.4 -- -- 73
2019-01-27 17:00:00 6.9 3 Oeste 30 Noroeste 0.3 -- -- 72
2019-01-27 16:00:00 6.4 13 Noroeste 43 Oeste 1.3 -- -- 76
2019-01-27 15:00:00 7.2 12 Noroeste 45 Noroeste 2.2 -- -- 75
2019-01-27 14:00:00 7.2 15 Noroeste 38 Noroeste 1.5 -- -- 73
2019-01-27 13:00:00 7.2 13 Noroeste 30 Norte 2.7 -- -- 80
2019-01-27 12:00:00 7.7 6 Oeste 41 Norte 1.3 -- -- 71
2019-01-27 11:00:00 7.6 4 Noroeste 22 Sudoeste 0.6 -- -- 75
2019-01-27 10:00:00 6.9 7 Noroeste 51 Norte 3.4 -- -- 77
2019-01-27 09:00:00 8.8 6 Oeste 36 Sudoeste 0.1 -- -- 61
2019-01-27 08:00:00 8 5 Oeste 37 Oeste 0.4 -- -- 68
2019-01-27 07:00:00 8.2 10 Noroeste 36 Noroeste 0.9 -- -- 77
2019-01-27 06:00:00 7.8 8 Oeste 35 Oeste 2.3 -- -- 91
2019-01-27 05:00:00 4.6 0 Calma 11 Sudeste 0.6 -- -- 97
2019-01-27 04:00:00 4.1 0 Calma 5 Noroeste 0 -- -- 97
2019-01-27 03:00:00 4 0 Calma 6 Norte 0 -- -- 97
2019-01-27 02:00:00 4.3 0 Calma 5 Noroeste 0 -- -- 97
2019-01-27 01:00:00 4.3 0 Calma 6 Noroeste 0 -- -- 97
2019-01-27 00:00:00 4.1 0 Calma 6 Sur 0 -- -- 97
2019-01-26 23:00:00 4 0 Calma 4 Nordeste 0 -- -- 96
2019-01-26 22:00:00 3.3 0 Calma 4 Noroeste 0 -- -- 95
2019-01-26 21:00:00 3.7 0 Calma 3 Sudoeste 0 -- -- 94
2019-01-26 20:00:00 4.7 0 Calma 3 Oeste 0 -- -- 92
2019-01-26 19:00:00 6.6 0 Calma 4 Sudoeste 0 -- -- 89
2019-01-26 18:00:00 9.2 2 Sudoeste 4 Sudoeste 0 -- -- 82
2019-01-26 17:00:00 12.3 0 Calma 7 Sudeste 0 -- -- 69
2019-01-26 16:00:00 12.7 0 Calma 8 Noroeste 0 -- -- 63
2019-01-26 15:00:00 11.7 5 Noroeste 9 Noroeste 0 -- -- 67
2019-01-26 14:00:00 11 4 Sudoeste 9 Sudoeste 0 -- -- 78
2019-01-26 13:00:00 10.9 3 Oeste 12 Noroeste 0 -- -- 81
2019-01-26 12:00:00 10.1 2 Noroeste 6 Noroeste 0 -- -- 91
2019-01-26 11:00:00 8.9 0 Calma 3 Norte 0 -- -- 97
2019-01-26 10:00:00 8.4 0 Calma 3 Sur 0 -- -- 97
2019-01-26 09:00:00 8.5 0 Calma 3 Sur 0 -- -- 97
2019-01-26 08:00:00 7.8 0 Calma 3 Sudoeste 0 -- -- 97
2019-01-26 07:00:00 7.9 0 Calma 2 Oeste 0 -- -- 97
2019-01-26 06:00:00 8.1 0 Calma 3 Este 0 -- -- 97
2019-01-26 05:00:00 8 0 Calma 3 Sur 0 -- -- 97
2019-01-26 04:00:00 8.1 0 Calma 3 Norte 0 -- -- 97
2019-01-26 03:00:00 8.2 0 Calma -- -- 0.1 -- -- 97
2019-01-26 02:00:00 8.4 0 Calma 4 Norte -- -- -- 97
2019-01-26 01:00:00 8.6 0 Calma 4 Sudeste 1.2 -- -- 97
2019-01-26 00:00:00 8.6 0 Calma 4 Este 1 -- -- 97
2019-01-25 23:00:00 8.7 0 Calma 6 Este 0.1 -- -- 97
2019-01-25 22:00:00 8.8 0 Calma 6 Sudeste 0.4 -- -- 97
2019-01-25 21:00:00 8.7 0 Calma 4 Nordeste 0.5 -- -- 97
2019-01-25 20:00:00 8.8 0 Calma 4 Sur 0.5 -- -- 97
2019-01-25 19:00:00 8.9 0 Calma 5 Norte 1.3 -- -- 96
2019-01-25 18:00:00 9.2 0 Calma 7 Sudeste 0.7 -- -- 95
2019-01-25 17:00:00 9.6 0 Calma 7 Oeste 0.4 -- -- 93
2019-01-25 16:00:00 9.5 3 Nordeste 10 Este 0.6 -- -- 92
2019-01-25 15:00:00 9.7 5 Sudoeste 9 Sudoeste 1.5 -- -- 93
2019-01-25 14:00:00 10.1 4 Sur 13 Noroeste 1.3 -- -- 93
2019-01-25 13:00:00 10.3 0 Calma 14 Noroeste 0.7 -- -- 92
2019-01-25 12:00:00 10.1 3 Oeste 17 Noroeste 0.4 -- -- 89
2019-01-25 11:00:00 9.5 0 Calma 19 Este 1.8 -- -- 97
2019-01-25 10:00:00 8.5 0 Calma 5 Sudoeste 3.4 -- -- 97
2019-01-25 09:00:00 8.3 2 Sudeste 9 Sudoeste 2.7 -- -- 97
2019-01-25 08:00:00 7.9 0 Calma 12 Norte 2 -- -- 96
2019-01-25 07:00:00 8.3 7 Noroeste 21 Noroeste 0.3 -- -- 92
2019-01-25 06:00:00 3.8 2 Sur 4 Sur 2 -- -- 97
2019-01-25 05:00:00 3.7 0 Calma 4 Norte 0.9 -- -- 96
2019-01-25 04:00:00 3.7 0 Calma 2 Sudoeste 0.3 -- -- 96
2019-01-25 03:00:00 3.6 0 Calma 3 Sur 0.6 -- -- 96
2019-01-25 02:00:00 3.6 0 Calma 4 Noroeste 0 -- -- 95
2019-01-25 01:00:00 3.7 0 Calma 3 Este 0.1 -- -- 95
2019-01-25 00:00:00 3.8 0 Calma 3 Este 0.1 -- -- 95
2019-01-24 23:00:00 3.9 0 Calma 2 Sudoeste 0.2 -- -- 94
2019-01-24 22:00:00 4 0 Calma -- -- 0.1 -- -- 92
2019-01-24 21:00:00 4.1 0 Calma 0 Calma 0 -- -- 90
2019-01-24 20:00:00 4.3 0 Calma 3 Sudeste 0 -- -- 90
2019-01-24 19:00:00 4.5 0 Calma 4 Sudoeste 0 -- -- 87
2019-01-24 18:00:00 4.9 2 Sudoeste 4 Sudoeste 0 -- -- 80
2019-01-24 17:00:00 5.3 0 Calma 6 Noroeste 0 -- -- 75
2019-01-24 16:00:00 5.5 2 Noroeste 5 Noroeste 0 -- -- 78
2019-01-24 15:00:00 5.2 2 Noroeste 5 Noroeste 0 -- -- 83
2019-01-24 14:00:00 4.5 0 Calma 9 Norte 0 -- -- 89
2019-01-24 13:00:00 3.9 4 Noroeste 7 Norte 0 -- -- 89
2019-01-24 12:00:00 3.4 2 Sudoeste 5 Noroeste 0 -- -- 90
2019-01-24 11:00:00 3.1 0 Calma 5 Oeste 0 -- -- 92
2019-01-24 10:00:00 2.7 3 Sudoeste 9 Sur 0.2 -- -- 92
2019-01-24 09:00:00 3.5 3 Sur 7 Oeste 0.1 -- -- 94
2019-01-24 08:00:00 3.4 0 Calma 4 Nordeste 0.1 -- -- 95
2019-01-24 07:00:00 3.6 0 Calma 10 Norte 0.1 -- -- 93
2019-01-24 06:00:00 3.9 4 Nordeste 12 Nordeste 0.3 -- -- 88
2019-01-24 05:00:00 3.9 0 Calma 7 Noroeste 1.7 -- -- 93
2019-01-24 04:00:00 4.2 0 Calma 15 Nordeste 1.4 -- -- 92
2019-01-24 03:00:00 4.8 6 Nordeste 19 Noroeste 1.5 -- -- 89
2019-01-24 02:00:00 4.9 6 Norte 13 Norte 3.9 -- -- 91
2019-01-24 01:00:00 5.4 7 Norte 22 Noroeste 2.6 -- -- 86
2019-01-24 00:00:00 5.2 0 Calma 32 Noroeste 3.1 -- -- 91
2019-01-23 23:00:00 5.8 12 Norte 37 Norte 3.7 -- -- 83
2019-01-23 22:00:00 6.7 9 Norte 35 Noroeste 3 -- -- 80
2019-01-23 21:00:00 6.4 10 Norte 50 Nordeste 4.7 -- -- 82
2019-01-23 20:00:00 6.9 9 Noroeste 38 Noroeste 4 -- -- 82
2019-01-23 19:00:00 6.8 10 Norte 32 Norte 4.3 -- -- 83
2019-01-23 18:00:00 7.3 10 Noroeste 47 Norte 2.8 -- -- 82
2019-01-23 17:00:00 7.6 8 Noroeste 39 Norte 3.3 -- -- 83
2019-01-23 16:00:00 7.4 6 Noroeste 43 Noroeste 3.1 -- -- 82
2019-01-23 15:00:00 8 4 Noroeste 31 Norte 0.4 -- -- 82
2019-01-23 14:00:00 8 17 Norte 36 Norte 3.5 -- -- 76
2019-01-23 13:00:00 8 5 Noroeste 41 Norte 3.3 -- -- 79
2019-01-23 12:00:00 8.4 10 Norte 34 Noroeste 1.4 -- -- 80
2019-01-23 11:00:00 8.2 6 Noroeste 36 Norte 3.5 -- -- 77
2019-01-23 10:00:00 8 8 Norte 39 Norte 4.4 -- -- 88
2019-01-23 09:00:00 8.6 10 Noroeste 48 Noroeste 6.7 -- -- 84
2019-01-23 08:00:00 9.6 8 Noroeste 38 Oeste 5.5 -- -- 84
2019-01-23 07:00:00 5.9 2 Sudeste 14 Sudoeste 3.6 -- -- 97
2019-01-23 06:00:00 4.5 0 Calma 4 Norte 2.6 -- -- 97
2019-01-23 05:00:00 4.3 0 Calma 4 Sudoeste 3.7 -- -- 97
2019-01-23 04:00:00 4.2 0 Calma 5 Sur 2 -- -- 97
2019-01-23 03:00:00 4.2 0 Calma 5 Noroeste 4.7 -- -- 97
2019-01-23 02:00:00 4.1 0 Calma 12 Sudeste 3.5 -- -- 97
2019-01-23 01:00:00 3.9 0 Calma 5 Sudoeste 2.5 -- -- 97
2019-01-23 00:00:00 4.1 0 Calma 7 Este 1.2 -- -- 97
2019-01-22 23:00:00 4 3 Sudeste 5 Sudeste 1.8 -- -- 96
2019-01-22 22:00:00 3.8 2 Nordeste 3 Nordeste 3.1 -- -- 96
2019-01-22 21:00:00 4 0 Calma 5 Norte 2.3 -- -- 96
2019-01-22 20:00:00 4.7 3 Noroeste 10 Norte 3.5 -- -- 96
2019-01-22 19:00:00 4.7 4 Noroeste 9 Oeste 1.4 -- -- 95
2019-01-22 18:00:00 4.8 3 Noroeste 8 Noroeste 1.3 -- -- 95
2019-01-22 17:00:00 5 2 Sudeste 13 Este 1.9 -- -- 95
2019-01-22 16:00:00 4.8 0 Calma 11 Sudoeste 3.4 -- -- 94
2019-01-22 15:00:00 5 0 Calma 12 Sur 3.6 -- -- 93
2019-01-22 14:00:00 5.1 5 Este 11 Nordeste 4 -- -- 95
2019-01-22 13:00:00 5.3 0 Calma 5 Sudeste 2.2 -- -- 96
2019-01-22 12:00:00 4.5 0 Calma -- -- 1.7 -- -- 96
2019-01-22 11:00:00 4.1 -- -- -- -- 0.9 -- -- 97
2019-01-22 10:00:00 3.9 -- -- -- -- 0.6 -- -- 97
2019-01-22 09:00:00 3.8 -- -- -- -- 0.3 -- -- 97
2019-01-22 08:00:00 3.4 -- -- -- -- 0 -- -- 97
2019-01-22 07:00:00 3.4 -- -- -- -- 0 -- -- 97
2019-01-22 06:00:00 3.2 -- -- -- -- 0 -- -- 96
2019-01-22 05:00:00 3.2 -- -- -- -- 0 -- -- 96
2019-01-22 04:00:00 3.5 -- -- -- -- 0 -- -- 96
2019-01-22 03:00:00 3.7 -- -- -- -- 0 -- -- 95
2019-01-22 02:00:00 3.8 -- -- -- -- 0 -- -- 95
2019-01-22 01:00:00 3.8 -- -- -- -- 0 -- -- 95
2019-01-22 00:00:00 3.8 -- -- -- -- 0 -- -- 95
2019-01-21 23:00:00 3.7 -- -- -- -- 0 -- -- 95
2019-01-21 22:00:00 3.4 -- -- -- -- 0 -- -- 93
2019-01-21 21:00:00 3.2 -- -- -- -- 0 -- -- 92
2019-01-21 20:00:00 4.1 -- -- -- -- 0 -- -- 88
2019-01-21 19:00:00 5 -- -- -- -- 0 -- -- 82
2019-01-21 18:00:00 5.6 -- -- -- -- 0 -- -- 78
2019-01-21 17:00:00 6.7 -- -- -- -- 0 -- -- 73
2019-01-21 16:00:00 6.7 -- -- -- -- 0 -- -- 77
2019-01-21 15:00:00 6.6 -- -- -- -- 0.1 -- -- 79
2019-01-21 14:00:00 6.5 -- -- -- -- 0.1 -- -- 78
2019-01-21 13:00:00 6.2 -- -- -- -- 0.1 -- -- 83
2019-01-21 12:00:00 6.2 -- -- -- -- 0 -- -- 80
2019-01-21 11:00:00 5.7 -- -- -- -- 0.3 -- -- 96
2019-01-21 10:00:00 5.5 -- -- -- -- 0.8 -- -- 97
2019-01-21 09:00:00 5.1 -- -- -- -- 0.6 -- -- 97
2019-01-21 08:00:00 4.9 -- -- -- -- 0.3 -- -- 97
2019-01-21 07:00:00 4.8 -- -- -- -- 0 -- -- 97
2019-01-21 06:00:00 4.8 -- -- -- -- 0 -- -- 97
2019-01-21 05:00:00 4.7 -- -- -- -- 0 -- -- 96
2019-01-21 04:00:00 4.8 -- -- -- -- 0 -- -- 96
2019-01-21 03:00:00 5.2 -- -- -- -- 1 -- -- 96
2019-01-21 02:00:00 5.5 -- -- -- -- 0.9 -- -- 95
2019-01-21 01:00:00 5.6 -- -- -- -- 1.2 -- -- 94
2019-01-21 00:00:00 5.9 -- -- -- -- 0.9 -- -- 96
2019-01-20 23:00:00 6 -- -- -- -- 1 -- -- 95
2019-01-20 22:00:00 6.1 -- -- -- -- 1.6 -- -- 95
2019-01-20 21:00:00 6.5 -- -- -- -- 0.5 -- -- 95
2019-01-20 20:00:00 6.4 -- -- -- -- 0.7 -- -- 95
2019-01-20 19:00:00 7 -- -- -- -- 0.2 -- -- 92
2019-01-20 18:00:00 7.2 -- -- -- -- 0.5 -- -- 91
2019-01-20 17:00:00 7.9 -- -- -- -- 0.4 -- -- 80
2019-01-20 16:00:00 8.2 -- -- -- -- 0 -- -- 82
2019-01-20 15:00:00 9 -- -- -- -- 0 -- -- 83
2019-01-20 14:00:00 7.5 -- -- -- -- 0.5 -- -- 90
2019-01-20 13:00:00 7.4 -- -- -- -- 2 -- -- 93
2019-01-20 12:00:00 6.8 -- -- -- -- 4 -- -- 95
2019-01-20 11:00:00 6.3 -- -- -- -- 1.2 -- -- 95
2019-01-20 10:00:00 5.8 -- -- -- -- 0.2 -- -- 96
2019-01-20 09:00:00 5.8 -- -- -- -- 1.2 -- -- 96
2019-01-20 08:00:00 5.6 -- -- -- -- 0 -- -- 95
2019-01-20 07:00:00 5.7 -- -- -- -- 0 -- -- 94
2019-01-20 06:00:00 5.7 -- -- -- -- 0.1 -- -- 93
2019-01-20 05:00:00 5.9 -- -- -- -- 0.1 -- -- 92
2019-01-20 04:00:00 6.2 -- -- -- -- 0.1 -- -- 88
2019-01-20 03:00:00 7 -- -- -- -- 0.1 -- -- 76
2019-01-20 02:00:00 7.7 -- -- -- -- 0 -- -- 68
2019-01-20 01:00:00 8 -- -- -- -- 0 -- -- 64
2019-01-20 00:00:00 8.7 -- -- -- -- 0 -- -- 60
2019-01-19 23:00:00 8.6 -- -- -- -- 0 -- -- 60
2019-01-19 22:00:00 9 -- -- -- -- 0 -- -- 60
2019-01-19 21:00:00 9.2 -- -- -- -- 0 -- -- 57
2019-01-19 20:00:00 9.7 -- -- -- -- 0 -- -- 54
2019-01-19 19:00:00 9.2 -- -- -- -- 0 -- -- 56
2019-01-19 18:00:00 8.7 -- -- -- -- 0 -- -- 63
2019-01-19 17:00:00 9.6 -- -- -- -- 0 -- -- 56
2019-01-19 16:00:00 9.8 -- -- -- -- 0 -- -- 57
2019-01-19 15:00:00 10.1 -- -- -- -- 0 -- -- 57
2019-01-19 14:00:00 9.9 -- -- -- -- 0 -- -- 59
2019-01-19 13:00:00 9.9 -- -- -- -- 0 -- -- 65
2019-01-19 12:00:00 8 -- -- -- -- 0 -- -- 78
2019-01-19 11:00:00 6.2 -- -- -- -- 0 -- -- 94
2019-01-19 10:00:00 4.7 -- -- -- -- 0.2 -- -- 97
2019-01-19 09:00:00 4.7 -- -- -- -- 0 -- -- 97
2019-01-19 08:00:00 4.2 -- -- -- -- 0 -- -- 97
2019-01-19 07:00:00 4.1 -- -- -- -- 0 -- -- 97
2019-01-19 06:00:00 4.2 -- -- -- -- 0.1 -- -- 97
2019-01-19 05:00:00 4.2 -- -- -- -- 0.3 -- -- 97
2019-01-19 04:00:00 4.1 -- -- -- -- 0.1 -- -- 97
2019-01-19 03:00:00 4 -- -- -- -- 0.5 -- -- 97
2019-01-19 02:00:00 4 -- -- -- -- 0.8 -- -- 97
2019-01-19 01:00:00 3.8 -- -- -- -- 0 -- -- 97
2019-01-19 00:00:00 3.8 -- -- -- -- 0 -- -- 97